Oxdrift, Canada
Current Conditions -  °F | °C
As of 4:00 AM on Sunday 25 Jan 2015 (Local Time) from CYHD Reporting Station
Overcast Overcast  
Wind Chill: -28°   Ceiling: 13000
Heat Index: -22°   Visibility: 9mi
Dew Point: -24°   Wind: 5mph
Humidity: 84%   Direction: 70°ENE
Pressure: 30.01"   Gusts: NA
Location:  49.82°N, 92.98°W
Report Text: CYHD 251000Z AUTO 07004KT 9SM OVC130 M22/M24 A3001 RMK SLP207
Loading
Personal Weather Stations






























Interactive Weather Map New forecast layout! Learn more

10-Day Weather Forecast

Advertisements
Track Severe Weather on mobile